createdAt,value
2022-08-03T00:02:16.943Z,6.90
2022-08-03T00:04:43.993Z,5.30
2022-08-03T00:07:10.779Z,6.80
2022-08-03T00:09:37.566Z,5.60
2022-08-03T00:12:05.044Z,6.70
2022-08-03T00:14:31.928Z,5.80
2022-08-03T00:16:58.949Z,7.00
2022-08-03T00:19:25.728Z,7.50
2022-08-03T00:21:52.446Z,7.40
2022-08-03T00:24:19.285Z,6.40
2022-08-03T00:26:46.298Z,7.80
2022-08-03T00:29:13.353Z,6.50
2022-08-03T00:31:52.237Z,6.90
2022-08-03T00:34:27.374Z,6.50
2022-08-03T00:37:06.685Z,7.00
2022-08-03T00:39:33.525Z,6.10
2022-08-03T00:42:05.355Z,6.20
2022-08-03T00:44:40.175Z,6.80
2022-08-03T00:47:08.057Z,6.50
2022-08-03T00:49:34.964Z,5.50
2022-08-03T00:52:09.327Z,6.50
2022-08-03T00:54:38.961Z,6.90
2022-08-03T00:57:06.956Z,7.10
2022-08-03T00:59:34.692Z,7.00
2022-08-03T01:02:01.581Z,9.00
2022-08-03T01:04:28.405Z,6.00
2022-08-03T01:07:17.493Z,6.60
2022-08-03T01:10:31.608Z,6.70
2022-08-03T01:14:01.314Z,6.90
2022-08-03T01:16:52.837Z,6.00
2022-08-03T01:20:03.102Z,6.70
2022-08-03T01:22:32.681Z,6.60
2022-08-03T01:25:27.250Z,7.40
2022-08-03T01:28:34.544Z,7.40
2022-08-03T01:31:08.594Z,7.70
2022-08-03T01:33:43.066Z,7.10
2022-08-03T01:36:18.149Z,6.80
2022-08-03T01:38:52.833Z,5.60
2022-08-03T01:41:29.264Z,6.90
2022-08-03T01:44:28.982Z,5.30
2022-08-03T01:46:51.388Z,6.90
2022-08-03T01:49:18.482Z,8.70
2022-08-03T01:51:57.839Z,7.40
2022-08-03T01:54:37.807Z,6.60
2022-08-03T01:57:06.113Z,7.40
2022-08-03T01:59:37.145Z,6.40
2022-08-03T02:02:28.813Z,6.80
2022-08-03T02:04:57.669Z,6.40
2022-08-03T02:07:27.933Z,7.20
2022-08-03T02:09:58.767Z,6.70
2022-08-03T02:12:28.895Z,5.80
2022-08-03T02:15:00.033Z,5.70
2022-08-03T02:17:39.724Z,7.20
2022-08-03T02:20:12.049Z,7.30
2022-08-03T02:22:44.715Z,7.40
2022-08-03T02:25:14.979Z,7.00
2022-08-03T02:27:55.024Z,5.60
2022-08-03T02:30:29.679Z,6.50
2022-08-03T02:32:59.540Z,6.50
2022-08-03T02:35:30.548Z,6.50
2022-08-03T02:38:03.623Z,7.20
2022-08-03T02:40:33.206Z,6.00
2022-08-03T02:43:07.730Z,6.40
2022-08-03T02:45:45.360Z,7.50
2022-08-03T02:48:20.440Z,5.70
2022-08-03T02:50:49.655Z,6.90
2022-08-03T02:53:19.713Z,6.30
2022-08-03T02:55:49.402Z,6.30
2022-08-03T02:58:23.103Z,8.80
2022-08-03T03:00:52.393Z,7.10
2022-08-03T03:03:22.168Z,8.00
2022-08-03T03:05:54.866Z,7.10
2022-08-03T03:08:28.717Z,5.60
2022-08-03T03:10:59.754Z,6.50
2022-08-03T03:13:30.328Z,7.30
2022-08-03T03:16:04.911Z,7.40
2022-08-03T03:18:34.785Z,8.60
2022-08-03T03:21:04.509Z,6.80
2022-08-03T03:23:36.062Z,6.90
2022-08-03T03:26:03.369Z,8.40
2022-08-03T03:28:32.184Z,6.60
2022-08-03T03:31:00.923Z,6.90
2022-08-03T03:33:28.724Z,7.80
2022-08-03T03:35:57.745Z,6.20
2022-08-03T03:38:24.622Z,6.40
2022-08-03T03:40:51.813Z,8.10
2022-08-03T03:43:19.089Z,7.80
2022-08-03T03:45:47.616Z,8.10
2022-08-03T03:48:14.919Z,7.60
2022-08-03T03:50:41.737Z,5.40
2022-08-03T03:53:15.923Z,6.40
2022-08-03T03:55:57.847Z,6.60
2022-08-03T03:58:31.637Z,6.30
2022-08-03T04:00:59.309Z,5.40
2022-08-03T04:03:26.254Z,8.00
2022-08-03T04:06:11.721Z,6.20
2022-08-03T04:08:57.265Z,6.80
2022-08-03T04:11:48.999Z,6.00
2022-08-03T04:14:36.057Z,9.50
2022-08-03T04:17:09.364Z,6.30
2022-08-03T04:19:46.403Z,6.10
2022-08-03T04:22:20.354Z,6.30
2022-08-03T04:24:57.550Z,6.20
2022-08-03T04:27:33.456Z,5.50
2022-08-03T04:30:05.753Z,7.80
2022-08-03T04:32:33.967Z,8.30
2022-08-03T04:35:01.051Z,6.20
2022-08-03T04:37:41.739Z,9.30
2022-08-03T04:40:18.987Z,6.00
2022-08-03T04:42:53.767Z,7.00
2022-08-03T04:45:22.215Z,4.60
2022-08-03T04:47:50.538Z,6.90
2022-08-03T04:50:21.318Z,6.30
2022-08-03T04:53:06.107Z,7.10
2022-08-03T04:55:36.770Z,6.60
2022-08-03T04:58:04.666Z,5.80
2022-08-03T05:00:31.639Z,7.60
2022-08-03T05:02:58.575Z,7.70
2022-08-03T05:05:25.390Z,6.10
2022-08-03T05:07:52.294Z,6.70
2022-08-03T05:10:20.260Z,8.60
2022-08-03T05:12:49.197Z,6.80
2022-08-03T05:15:16.136Z,6.90
2022-08-03T05:17:43.398Z,5.70
2022-08-03T05:20:11.695Z,7.70
2022-08-03T05:22:38.595Z,6.90
2022-08-03T05:25:05.881Z,6.70
2022-08-03T05:27:32.654Z,8.40
2022-08-03T05:30:32.281Z,8.80
2022-08-03T05:32:46.137Z,7.60
2022-08-03T05:36:00.766Z,7.00
2022-08-03T05:37:59.697Z,6.90
2022-08-03T05:40:27.118Z,6.00
2022-08-03T05:42:54.093Z,9.50
2022-08-03T05:45:23.254Z,7.50
2022-08-03T05:47:53.666Z,9.00
2022-08-03T05:50:21.532Z,7.30
2022-08-03T05:52:48.337Z,8.10
2022-08-03T05:55:15.946Z,9.00
2022-08-03T05:57:43.767Z,6.10
2022-08-03T06:00:12.604Z,8.90
2022-08-03T06:02:42.852Z,8.00
2022-08-03T06:05:10.924Z,6.90
2022-08-03T06:07:38.250Z,7.50
2022-08-03T06:10:35.661Z,8.30
2022-08-03T06:12:53.614Z,7.80
2022-08-03T06:15:20.582Z,7.40
2022-08-03T06:17:52.164Z,7.90
2022-08-03T06:20:22.191Z,6.40
2022-08-03T06:23:00.179Z,6.50
2022-08-03T06:25:29.199Z,9.80
2022-08-03T06:27:56.228Z,5.90
2022-08-03T06:30:23.256Z,6.20
2022-08-03T06:32:51.722Z,6.10
2022-08-03T06:35:20.340Z,9.10
2022-08-03T06:37:51.761Z,10.00
2022-08-03T06:40:32.278Z,7.70
2022-08-03T06:43:02.803Z,8.70
2022-08-03T06:45:31.800Z,10.80
2022-08-03T06:48:08.331Z,6.20
2022-08-03T06:50:38.242Z,5.40
2022-08-03T06:53:06.154Z,6.90
2022-08-03T06:55:33.512Z,6.60
2022-08-03T06:58:08.693Z,7.60
2022-08-03T07:00:35.458Z,7.60
2022-08-03T07:03:02.234Z,8.00
2022-08-03T07:05:30.545Z,7.40
2022-08-03T07:07:59.297Z,8.20
2022-08-03T07:10:26.166Z,7.80
2022-08-03T07:12:55.753Z,5.40
2022-08-03T07:15:38.269Z,7.40
2022-08-03T07:18:12.253Z,5.80
2022-08-03T07:20:39.049Z,6.10
2022-08-03T07:23:05.789Z,7.10
2022-08-03T07:25:32.531Z,6.10
2022-08-03T07:27:59.678Z,8.90
2022-08-03T07:30:26.539Z,6.70
2022-08-03T07:32:53.543Z,5.00
2022-08-03T07:35:24.381Z,6.20
2022-08-03T07:37:54.226Z,6.40
2022-08-03T07:40:22.746Z,6.60
2022-08-03T07:42:53.247Z,5.20
2022-08-03T07:45:23.386Z,4.00
2022-08-03T07:47:53.634Z,8.80
2022-08-03T07:50:22.541Z,4.30
2022-08-03T07:52:51.773Z,4.30
2022-08-03T07:55:28.739Z,6.10
2022-08-03T07:58:06.836Z,6.30
2022-08-03T08:00:34.153Z,5.60
2022-08-03T08:03:01.007Z,8.30
2022-08-03T08:05:29.561Z,7.70
2022-08-03T08:07:56.692Z,5.30
2022-08-03T08:10:23.890Z,3.80
2022-08-03T08:12:50.653Z,4.60
2022-08-03T08:15:17.598Z,6.50
2022-08-03T08:17:51.964Z,7.00
2022-08-03T08:20:31.383Z,6.50
2022-08-03T08:23:09.539Z,6.00
2022-08-03T08:25:54.011Z,5.70
2022-08-03T08:28:32.235Z,5.30
2022-08-03T08:31:02.312Z,4.10
2022-08-03T08:33:47.949Z,7.20
2022-08-03T08:36:17.112Z,6.30
2022-08-03T08:38:45.195Z,5.10
2022-08-03T08:41:14.628Z,5.80
2022-08-03T08:43:43.379Z,6.10
2022-08-03T08:46:23.660Z,5.30
2022-08-03T08:48:53.392Z,6.20
2022-08-03T08:51:22.743Z,5.40
2022-08-03T08:53:53.922Z,5.30
2022-08-03T08:56:26.107Z,6.80
2022-08-03T08:59:01.098Z,5.60
2022-08-03T09:01:29.403Z,6.30
2022-08-03T09:03:56.626Z,4.60
2022-08-03T09:06:24.566Z,6.70
2022-08-03T09:08:51.483Z,4.70
2022-08-03T09:11:51.464Z,6.20
2022-08-03T09:14:11.361Z,7.10
2022-08-03T09:17:03.550Z,7.80
2022-08-03T09:19:33.530Z,5.80
2022-08-03T09:22:18.657Z,5.20
2022-08-03T09:25:23.222Z,5.00
2022-08-03T09:27:48.229Z,6.10
2022-08-03T09:30:33.471Z,5.60
2022-08-03T09:33:06.611Z,5.50
2022-08-03T09:35:57.752Z,7.50
2022-08-03T09:38:28.718Z,3.80
2022-08-03T09:41:00.345Z,4.40
2022-08-03T09:43:28.757Z,4.70
2022-08-03T09:46:05.606Z,4.30
2022-08-03T09:48:37.370Z,5.10
2022-08-03T09:51:32.324Z,5.80
2022-08-03T09:53:58.579Z,5.30
2022-08-03T09:56:42.653Z,5.90
2022-08-03T09:59:11.881Z,5.30
2022-08-03T10:01:42.814Z,5.40
2022-08-03T10:04:17.051Z,6.30
2022-08-03T10:06:46.196Z,4.60
2022-08-03T10:09:16.247Z,5.30
2022-08-03T10:11:47.030Z,5.30
2022-08-03T10:14:19.217Z,4.80
2022-08-03T10:16:48.806Z,4.50
2022-08-03T10:19:17.543Z,6.60
2022-08-03T10:21:53.684Z,6.10
2022-08-03T10:24:28.233Z,6.00
2022-08-03T10:27:04.176Z,4.50
2022-08-03T10:29:38.837Z,5.60
2022-08-03T10:32:19.305Z,6.50
2022-08-03T10:34:50.744Z,4.20
2022-08-03T10:37:32.312Z,4.90
2022-08-03T10:40:01.125Z,5.90
2022-08-03T10:42:31.521Z,5.00
2022-08-03T10:45:25.545Z,7.00
2022-08-03T10:47:56.086Z,6.30
2022-08-03T10:50:26.090Z,4.50
2022-08-03T10:53:06.985Z,5.70
2022-08-03T10:55:54.151Z,6.30
2022-08-03T10:58:57.545Z,7.00
2022-08-03T11:01:59.920Z,6.00
2022-08-03T11:04:30.187Z,6.30
2022-08-03T11:07:26.955Z,6.00
2022-08-03T11:09:56.906Z,6.70
2022-08-03T11:12:33.885Z,8.00
2022-08-03T11:15:07.162Z,7.80
2022-08-03T11:17:45.769Z,9.00
2022-08-03T11:20:48.341Z,6.30
2022-08-03T11:23:18.040Z,5.80
2022-08-03T11:26:13.783Z,6.60
2022-08-03T11:28:43.235Z,6.60
2022-08-03T11:31:46.882Z,9.10
2022-08-03T11:34:16.065Z,7.00
2022-08-03T11:37:23.686Z,7.90
2022-08-03T11:39:55.497Z,6.10
2022-08-03T11:42:22.133Z,6.00
2022-08-03T11:44:58.090Z,7.90
2022-08-03T11:47:30.113Z,10.40
2022-08-03T11:50:02.178Z,7.70
2022-08-03T11:52:37.377Z,8.20
2022-08-03T11:55:11.032Z,8.50
2022-08-03T11:59:16.384Z,8.50
2022-08-03T12:00:33.291Z,5.90
2022-08-03T12:03:14.500Z,9.70
2022-08-03T12:05:51.515Z,9.40
2022-08-03T12:08:41.191Z,8.20
2022-08-03T12:11:10.874Z,6.20
2022-08-03T12:14:44.570Z,5.90
2022-08-03T12:16:34.404Z,7.10
2022-08-03T12:19:05.155Z,7.80
2022-08-03T12:21:32.328Z,5.80
2022-08-03T12:24:02.360Z,6.20
2022-08-03T12:26:42.120Z,5.90
2022-08-03T12:29:08.923Z,6.10
2022-08-03T12:31:36.429Z,6.40
2022-08-03T12:34:07.179Z,8.40
2022-08-03T12:36:36.458Z,5.30
2022-08-03T12:39:09.190Z,7.50
2022-08-03T12:41:39.166Z,5.60
2022-08-03T12:44:08.994Z,9.00
2022-08-03T12:46:44.004Z,6.30
2022-08-03T12:49:18.814Z,4.60
2022-08-03T12:51:45.621Z,7.10
2022-08-03T12:54:25.401Z,5.00
2022-08-03T12:57:07.618Z,8.00
2022-08-03T12:59:53.179Z,4.90
2022-08-03T13:02:24.770Z,7.40
2022-08-03T13:04:54.375Z,6.30
2022-08-03T13:07:23.046Z,5.70
2022-08-03T13:09:56.352Z,4.70
2022-08-03T13:12:27.057Z,5.70
2022-08-03T13:15:00.632Z,7.60
2022-08-03T13:17:28.375Z,5.20
2022-08-03T13:19:56.471Z,6.00
2022-08-03T13:22:27.373Z,8.10
2022-08-03T13:24:57.621Z,5.20
2022-08-03T13:28:03.127Z,6.00
2022-08-03T13:30:13.302Z,6.00
2022-08-03T13:32:40.404Z,5.60
2022-08-03T13:35:09.309Z,6.70
2022-08-03T13:37:37.732Z,5.40
2022-08-03T13:40:08.520Z,3.70
2022-08-03T13:42:38.974Z,5.00
2022-08-03T13:45:06.729Z,7.60
2022-08-03T13:47:33.526Z,5.50
2022-08-03T13:50:02.764Z,6.70
2022-08-03T13:52:35.475Z,4.80
2022-08-03T13:55:07.304Z,5.20
2022-08-03T13:58:05.335Z,4.10
2022-08-03T14:00:28.939Z,4.40
2022-08-03T14:03:09.156Z,6.00
2022-08-03T14:05:39.638Z,6.90
2022-08-03T14:08:07.888Z,7.70
2022-08-03T14:10:42.142Z,6.00
2022-08-03T14:13:11.678Z,6.30
2022-08-03T14:15:38.939Z,6.50
2022-08-03T14:18:15.737Z,6.80
2022-08-03T14:20:53.035Z,8.20
2022-08-03T14:23:23.060Z,6.80
2022-08-03T14:25:51.505Z,7.50
2022-08-03T14:28:25.255Z,7.10
2022-08-03T14:30:54.425Z,8.20
2022-08-03T14:33:22.095Z,10.90
2022-08-03T14:35:49.232Z,11.30
2022-08-03T14:38:16.660Z,8.60
2022-08-03T14:40:44.000Z,9.20
2022-08-03T14:43:11.610Z,7.90
2022-08-03T14:45:39.842Z,8.90
2022-08-03T14:50:32.948Z,9.80
2022-08-03T14:50:55.491Z,10.60
2022-08-03T14:53:23.384Z,10.50
2022-08-03T14:55:51.864Z,10.90
2022-08-03T14:58:25.445Z,10.90
2022-08-03T15:00:54.927Z,12.10
2022-08-03T15:03:24.700Z,9.30
2022-08-03T15:05:55.380Z,10.50
2022-08-03T15:08:25.864Z,10.30
2022-08-03T15:10:54.813Z,10.10
2022-08-03T15:13:22.677Z,11.30
2022-08-03T15:15:49.978Z,11.90
2022-08-03T15:18:16.900Z,12.00
2022-08-03T15:20:46.314Z,10.40
2022-08-03T15:23:15.820Z,14.60
2022-08-03T15:26:03.922Z,14.30
2022-08-03T15:28:34.492Z,17.70
2022-08-03T15:31:06.516Z,16.20
2022-08-03T15:33:33.356Z,20.80
2022-08-03T15:36:02.437Z,18.30
2022-08-03T15:38:29.298Z,19.60
2022-08-03T15:40:56.189Z,19.60
2022-08-03T15:43:24.274Z,17.00
2022-08-03T15:46:19.463Z,14.40
2022-08-03T15:48:39.508Z,13.50
2022-08-03T15:51:07.817Z,13.70
2022-08-03T15:53:34.781Z,17.70
2022-08-03T15:56:09.715Z,19.80
2022-08-03T15:59:09.574Z,19.90
2022-08-03T16:01:27.407Z,22.10
2022-08-03T16:03:54.249Z,23.40
2022-08-03T16:06:29.859Z,26.40
2022-08-03T16:09:23.886Z,28.20
2022-08-03T16:11:55.192Z,34.40
2022-08-03T16:14:32.434Z,29.90
2022-08-03T16:17:05.160Z,30.70
2022-08-03T16:19:32.051Z,28.60
2022-08-03T16:21:59.532Z,27.00
2022-08-03T16:24:28.195Z,26.70
2022-08-03T16:26:56.337Z,24.70
2022-08-03T16:29:23.915Z,27.50
2022-08-03T16:31:52.529Z,30.30
2022-08-03T16:34:20.776Z,31.50
2022-08-03T16:36:47.885Z,26.60
2022-08-03T16:39:14.874Z,27.50
2022-08-03T16:41:54.547Z,29.60
2022-08-03T16:44:31.019Z,34.40
2022-08-03T16:47:00.001Z,26.80
2022-08-03T16:49:54.687Z,28.20
2022-08-03T16:52:14.241Z,30.40
2022-08-03T16:54:50.551Z,31.70
2022-08-03T16:57:56.028Z,32.20
2022-08-03T17:00:34.207Z,28.20
2022-08-03T17:03:04.135Z,25.40
2022-08-03T17:05:32.694Z,31.50
2022-08-03T17:08:13.888Z,30.20
2022-08-03T17:10:45.226Z,31.60
2022-08-03T17:13:15.206Z,29.10
2022-08-03T17:16:00.885Z,26.20
2022-08-03T17:18:38.785Z,29.90
2022-08-03T17:21:11.368Z,26.10
2022-08-03T17:23:51.883Z,28.80
2022-08-03T17:26:22.008Z,30.30
2022-08-03T17:28:57.178Z,26.20
2022-08-03T17:31:31.120Z,26.80
2022-08-03T17:34:04.480Z,29.00
2022-08-03T17:37:02.070Z,28.60
2022-08-03T17:39:31.205Z,27.10
2022-08-03T17:42:30.343Z,31.40
2022-08-03T17:45:02.548Z,32.40
2022-08-03T17:47:42.197Z,31.20
2022-08-03T17:50:25.025Z,28.80
2022-08-03T17:53:07.482Z,22.70
2022-08-03T17:59:09.548Z,16.50
2022-08-03T18:02:47.968Z,10.60
2022-08-03T18:05:21.908Z,11.20
2022-08-03T18:07:59.290Z,8.40
2022-08-03T18:10:35.746Z,6.80
2022-08-03T18:13:22.981Z,6.00
2022-08-03T18:16:04.495Z,7.50
2022-08-03T18:18:43.026Z,5.40
2022-08-03T18:21:16.677Z,5.60
2022-08-03T18:23:46.116Z,8.40
2022-08-03T18:26:18.638Z,6.80
2022-08-03T18:28:45.996Z,6.50
2022-08-03T18:31:33.098Z,4.50
2022-08-03T18:34:16.367Z,9.10
2022-08-03T18:39:50.239Z,5.70
2022-08-03T18:42:20.372Z,5.80
2022-08-03T18:44:56.288Z,6.50
2022-08-03T18:47:52.624Z,5.60
2022-08-03T18:50:37.214Z,4.80
2022-08-03T18:54:04.018Z,7.20
2022-08-03T18:56:21.538Z,8.10
2022-08-03T18:59:03.073Z,6.30
2022-08-03T19:02:00.361Z,6.30
2022-08-03T19:04:46.558Z,6.40
2022-08-03T19:07:23.860Z,6.80
2022-08-03T19:09:59.390Z,6.50
2022-08-03T19:12:46.002Z,8.30
2022-08-03T19:15:15.781Z,8.40
2022-08-03T19:17:53.725Z,9.20
2022-08-03T19:20:25.161Z,8.70
2022-08-03T19:22:54.769Z,9.50
2022-08-03T19:25:33.336Z,9.20
2022-08-03T19:28:06.130Z,7.30
2022-08-03T19:30:40.329Z,7.80
2022-08-03T19:33:15.743Z,5.60
2022-08-03T19:35:55.275Z,5.80
2022-08-03T19:38:29.211Z,7.40
2022-08-03T19:41:03.758Z,10.00
2022-08-03T19:43:49.530Z,7.60
2022-08-03T19:46:30.997Z,8.10
2022-08-03T19:49:10.652Z,7.50
2022-08-03T19:51:58.869Z,7.10
2022-08-03T19:54:53.580Z,8.60
2022-08-03T19:57:26.864Z,9.20
2022-08-03T19:59:56.676Z,7.70
2022-08-03T20:02:27.025Z,7.80
2022-08-03T20:04:57.027Z,11.10
2022-08-03T20:07:26.886Z,9.80
2022-08-03T20:09:56.541Z,11.50
2022-08-03T20:12:28.426Z,10.70
2022-08-03T20:14:59.982Z,13.30
2022-08-03T20:17:55.074Z,11.60
2022-08-03T20:20:30.621Z,8.50
2022-08-03T20:23:00.339Z,12.00
2022-08-03T20:25:38.056Z,8.40
2022-08-03T20:28:14.483Z,9.70
2022-08-03T20:30:47.426Z,8.80
2022-08-03T20:33:18.328Z,8.40
2022-08-03T20:35:49.674Z,8.80
2022-08-03T20:38:19.240Z,8.00
2022-08-03T20:40:48.389Z,7.70
2022-08-03T20:43:16.874Z,10.10
2022-08-03T20:45:59.762Z,8.10
2022-08-03T20:48:37.244Z,11.60
2022-08-03T20:54:00.177Z,9.50
2022-08-03T20:56:35.764Z,8.10
2022-08-03T20:59:07.150Z,7.80
2022-08-03T21:01:42.282Z,8.40
2022-08-03T21:04:11.915Z,7.30
2022-08-03T21:07:00.753Z,9.00
2022-08-03T21:09:49.408Z,9.50
2022-08-03T21:12:43.586Z,6.60
2022-08-03T21:12:58.651Z,5.40
2022-08-03T21:13:05.488Z,18.20
2022-08-03T21:13:14.286Z,6.50
2022-08-03T21:16:03.144Z,8.20
2022-08-03T21:18:06.024Z,6.90
2022-08-03T21:20:34.854Z,10.90
2022-08-03T21:23:02.201Z,9.20
2022-08-03T21:25:33.578Z,7.10
2022-08-03T21:28:01.970Z,8.90
2022-08-03T21:30:30.481Z,7.40
2022-08-03T21:32:58.576Z,10.70
2022-08-03T21:35:25.644Z,7.80
2022-08-03T21:38:11.975Z,8.20
2022-08-03T21:40:41.079Z,9.10
2022-08-03T21:43:09.063Z,7.80
2022-08-03T21:45:48.401Z,11.20
2022-08-03T21:48:16.723Z,6.90
2022-08-03T21:50:44.676Z,10.30
2022-08-03T21:53:12.205Z,7.90
2022-08-03T21:55:46.706Z,8.40
2022-08-03T21:58:21.119Z,8.00
2022-08-03T22:00:48.476Z,9.80
2022-08-03T22:03:17.821Z,8.50
2022-08-03T22:05:45.144Z,9.60
2022-08-03T22:08:15.295Z,6.60
2022-08-03T22:10:47.468Z,10.40
2022-08-03T22:13:21.926Z,9.50
2022-08-03T22:16:05.247Z,6.60
2022-08-03T22:18:32.186Z,7.10
2022-08-03T22:21:00.642Z,6.20
2022-08-03T22:23:27.851Z,7.50
2022-08-03T22:25:57.609Z,7.60
2022-08-03T22:28:30.673Z,9.00
2022-08-03T22:31:00.155Z,5.90
2022-08-03T22:33:48.969Z,6.10
2022-08-03T22:36:23.173Z,7.60
2022-08-03T22:38:53.604Z,8.90
2022-08-03T22:41:21.360Z,7.90
2022-08-03T22:43:49.738Z,8.70
2022-08-03T22:46:22.134Z,6.70
2022-08-03T22:48:50.620Z,10.30
2022-08-03T22:51:20.689Z,10.50
2022-08-03T22:53:48.296Z,8.70
2022-08-03T22:56:15.197Z,9.80
2022-08-03T22:58:42.291Z,7.60
2022-08-03T23:01:11.791Z,7.30
2022-08-03T23:03:59.152Z,7.40
2022-08-03T23:06:36.329Z,8.10
2022-08-03T23:09:13.702Z,8.50
2022-08-03T23:11:45.488Z,8.90
2022-08-03T23:14:19.361Z,7.70
2022-08-03T23:16:48.118Z,7.80
2022-08-03T23:19:25.183Z,7.40
2022-08-03T23:22:03.815Z,7.00
2022-08-03T23:24:38.420Z,5.80
2022-08-03T23:27:09.154Z,8.10
2022-08-03T23:29:42.192Z,9.50
2022-08-03T23:32:10.707Z,8.70
2022-08-03T23:34:58.878Z,7.90
2022-08-03T23:37:26.982Z,7.70
2022-08-03T23:39:57.276Z,6.40
2022-08-03T23:42:25.359Z,10.10
2022-08-03T23:44:59.567Z,8.10
2022-08-03T23:47:46.757Z,10.30
2022-08-03T23:50:15.938Z,9.90
2022-08-03T23:52:57.692Z,9.20
2022-08-03T23:55:56.068Z,9.90
2022-08-03T23:59:06.433Z,7.40
